Weather at Bahau Airport [CLOSED]

Public forecast

Using degrees Celsius for public forecast. Weather courtesy of forecast.io.

Closest aviation weather report (METAR) to Bahau Airport

Closest report is Malacca International Airport, 34.5 nm (63.9 km) SSW.

2024/05/20 22:00 (retrieved 40 minutes ago)

WMKM 202200Z 00000KT 8000 FEW008 FEW017CB 27/26 Q1007

Closest aviation forecast (TAF) to Bahau Airport

Closest forecast is Malacca International Airport, 34.5 nm (63.9 km) SSW.

2024/05/20 18:00 (retrieved 5 hours ago)

TAF WMKM 201700Z 2018/2118 15005KT 9999 FEW028 TEMPO 2021/2101 4000 TSRA FEW010 FEW017CB SCT020